createdAt,value
2022-12-22T00:00:40.335Z,6.86
2022-12-22T00:01:44.929Z,6.89
2022-12-22T00:02:40.565Z,6.89
2022-12-22T00:03:40.409Z,6.89
2022-12-22T00:04:40.296Z,6.91
2022-12-22T00:05:40.287Z,6.94
2022-12-22T00:06:40.267Z,6.95
2022-12-22T00:07:40.296Z,6.97
2022-12-22T00:08:40.246Z,6.95
2022-12-22T00:09:40.233Z,6.97
2022-12-22T00:10:40.230Z,6.95
2022-12-22T00:11:40.216Z,6.90
2022-12-22T00:12:40.246Z,6.90
2022-12-22T00:13:40.214Z,7.01
2022-12-22T00:14:40.194Z,7.07
2022-12-22T00:15:40.177Z,7.08
2022-12-22T00:16:40.218Z,7.09
2022-12-22T00:17:40.165Z,7.12
2022-12-22T00:18:40.148Z,7.09
2022-12-22T00:19:40.129Z,7.08
2022-12-22T00:20:40.120Z,7.08
2022-12-22T00:21:40.116Z,7.02
2022-12-22T00:22:40.111Z,7.01
2022-12-22T00:23:40.095Z,7.01
2022-12-22T00:24:40.065Z,7.08
2022-12-22T00:25:40.058Z,7.23
2022-12-22T00:26:40.042Z,7.29
2022-12-22T00:27:45.239Z,7.29
2022-12-22T00:28:40.032Z,7.29
2022-12-22T00:29:40.024Z,7.23
2022-12-22T00:30:40.056Z,7.17
2022-12-22T00:31:39.998Z,7.09
2022-12-22T00:32:40.007Z,7.09
2022-12-22T00:33:39.998Z,7.07
2022-12-22T00:34:39.982Z,7.05
2022-12-22T00:35:39.949Z,7.05
2022-12-22T00:36:39.948Z,7.19
2022-12-22T00:37:39.945Z,7.23
2022-12-22T00:38:39.913Z,7.26
2022-12-22T00:39:39.907Z,7.24
2022-12-22T00:40:39.895Z,7.20
2022-12-22T00:41:39.887Z,7.17
2022-12-22T00:42:39.896Z,7.17
2022-12-22T00:43:39.868Z,7.15
2022-12-22T00:44:39.845Z,7.13
2022-12-22T00:45:39.898Z,7.12
2022-12-22T00:46:39.837Z,7.09
2022-12-22T00:47:39.836Z,7.05
2022-12-22T00:48:39.806Z,7.04
2022-12-22T00:49:39.810Z,7.04
2022-12-22T00:50:39.785Z,7.02
2022-12-22T00:51:39.771Z,7.02
2022-12-22T00:52:39.781Z,7.02
2022-12-22T00:53:39.748Z,7.01
2022-12-22T00:54:39.746Z,7.09
2022-12-22T00:55:39.734Z,7.17
2022-12-22T00:56:39.725Z,7.17
2022-12-22T00:57:39.724Z,7.16
2022-12-22T00:58:39.726Z,7.15
2022-12-22T00:59:39.691Z,7.13
2022-12-22T01:00:39.686Z,7.13
2022-12-22T01:01:39.766Z,7.15
2022-12-22T01:02:39.892Z,7.17
2022-12-22T01:03:39.717Z,7.19
2022-12-22T01:04:39.637Z,7.17
2022-12-22T01:05:39.627Z,7.17
2022-12-22T01:06:39.598Z,7.13
2022-12-22T01:07:39.617Z,7.09
2022-12-22T01:08:39.591Z,7.12
2022-12-22T01:09:39.573Z,7.15
2022-12-22T01:10:39.554Z,7.15
2022-12-22T01:11:39.562Z,7.15
2022-12-22T01:12:39.599Z,7.15
2022-12-22T01:13:39.542Z,7.15
2022-12-22T01:14:39.518Z,7.15
2022-12-22T01:15:39.551Z,7.15
2022-12-22T01:16:39.501Z,7.13
2022-12-22T01:17:39.498Z,7.12
2022-12-22T01:18:39.472Z,7.12
2022-12-22T01:19:39.470Z,7.08
2022-12-22T01:20:39.455Z,7.09
2022-12-22T01:21:39.436Z,7.12
2022-12-22T01:22:39.461Z,7.09
2022-12-22T01:23:39.410Z,7.09
2022-12-22T01:24:39.403Z,7.09
2022-12-22T01:25:39.397Z,7.09
2022-12-22T01:26:39.387Z,7.08
2022-12-22T01:27:39.393Z,7.07
2022-12-22T01:28:39.370Z,7.05
2022-12-22T01:29:39.352Z,7.04
2022-12-22T01:30:39.403Z,7.02
2022-12-22T01:31:39.336Z,7.04
2022-12-22T01:32:39.337Z,7.12
2022-12-22T01:33:39.303Z,7.16
2022-12-22T01:34:39.315Z,7.13
2022-12-22T01:35:39.292Z,7.12
2022-12-22T01:36:39.277Z,7.12
2022-12-22T01:37:39.287Z,7.12
2022-12-22T01:38:39.247Z,7.07
2022-12-22T01:39:39.240Z,7.07
2022-12-22T01:40:39.243Z,7.08
2022-12-22T01:41:39.239Z,7.13
2022-12-22T01:42:39.223Z,7.15
2022-12-22T01:43:39.231Z,7.16
2022-12-22T01:44:39.188Z,7.22
2022-12-22T01:45:39.182Z,7.22
2022-12-22T01:46:39.270Z,7.22
2022-12-22T01:47:39.172Z,7.22
2022-12-22T01:48:39.149Z,7.22
2022-12-22T01:49:39.131Z,7.20
2022-12-22T01:50:39.119Z,7.19
2022-12-22T01:51:39.116Z,7.22
2022-12-22T01:52:39.103Z,7.26
2022-12-22T01:53:39.090Z,7.26
2022-12-22T01:54:39.067Z,7.27
2022-12-22T01:55:39.067Z,7.27
2022-12-22T01:56:39.061Z,7.26
2022-12-22T01:57:39.062Z,7.26
2022-12-22T01:58:39.032Z,7.24
2022-12-22T01:59:39.154Z,7.23
2022-12-22T02:00:39.019Z,7.23
2022-12-22T02:01:39.127Z,7.22
2022-12-22T02:02:39.118Z,7.20
2022-12-22T02:03:39.136Z,7.23
2022-12-22T02:04:38.971Z,7.23
2022-12-22T02:05:38.968Z,7.27
2022-12-22T02:06:38.937Z,7.29
2022-12-22T02:07:38.949Z,7.29
2022-12-22T02:08:38.954Z,7.26
2022-12-22T02:09:38.907Z,7.26
2022-12-22T02:10:38.895Z,7.24
2022-12-22T02:11:38.877Z,7.24
2022-12-22T02:12:38.874Z,7.26
2022-12-22T02:13:38.878Z,7.26
2022-12-22T02:14:38.865Z,7.27
2022-12-22T02:15:38.877Z,7.29
2022-12-22T02:16:38.836Z,7.35
2022-12-22T02:17:39.670Z,7.38
2022-12-22T02:18:38.818Z,7.40
2022-12-22T02:19:38.800Z,7.40
2022-12-22T02:20:38.788Z,7.38
2022-12-22T02:21:38.770Z,7.35
2022-12-22T02:22:38.763Z,7.35
2022-12-22T02:23:38.775Z,7.34
2022-12-22T02:24:38.740Z,7.35
2022-12-22T02:25:38.728Z,7.34
2022-12-22T02:26:38.716Z,7.34
2022-12-22T02:27:39.548Z,7.31
2022-12-22T02:28:38.710Z,7.29
2022-12-22T02:29:38.687Z,7.29
2022-12-22T02:30:38.692Z,7.29
2022-12-22T02:31:38.699Z,7.29
2022-12-22T02:32:38.654Z,7.31
2022-12-22T02:33:38.661Z,7.27
2022-12-22T02:34:38.630Z,7.29
2022-12-22T02:35:38.620Z,7.29
2022-12-22T02:36:38.615Z,7.29
2022-12-22T02:37:38.607Z,7.27
2022-12-22T02:38:38.591Z,7.24
2022-12-22T02:39:38.574Z,7.24
2022-12-22T02:40:41.596Z,7.23
2022-12-22T02:41:38.548Z,7.23
2022-12-22T02:42:38.543Z,7.24
2022-12-22T02:43:38.564Z,7.24
2022-12-22T02:44:38.526Z,7.27
2022-12-22T02:45:38.519Z,7.24
2022-12-22T02:46:38.497Z,7.27
2022-12-22T02:47:38.501Z,7.26
2022-12-22T02:48:38.487Z,7.27
2022-12-22T02:49:38.465Z,7.31
2022-12-22T02:50:38.448Z,7.32
2022-12-22T02:51:38.459Z,7.34
2022-12-22T02:52:38.419Z,7.32
2022-12-22T02:53:38.442Z,7.35
2022-12-22T02:54:38.402Z,7.35
2022-12-22T02:55:38.391Z,7.34
2022-12-22T02:56:38.404Z,7.32
2022-12-22T02:57:38.363Z,7.32
2022-12-22T02:58:38.388Z,7.27
2022-12-22T02:59:38.364Z,7.26
2022-12-22T03:00:38.340Z,7.27
2022-12-22T03:01:38.596Z,7.35
2022-12-22T03:02:38.517Z,7.37
2022-12-22T03:03:38.697Z,7.38
2022-12-22T03:04:38.291Z,7.38
2022-12-22T03:05:38.285Z,7.42
2022-12-22T03:06:38.267Z,7.44
2022-12-22T03:07:38.262Z,7.44
2022-12-22T03:08:38.254Z,7.45
2022-12-22T03:09:38.240Z,7.45
2022-12-22T03:10:38.228Z,7.44
2022-12-22T03:11:38.216Z,7.45
2022-12-22T03:12:38.206Z,7.45
2022-12-22T03:13:38.235Z,7.47
2022-12-22T03:14:38.181Z,7.44
2022-12-22T03:15:38.170Z,7.44
2022-12-22T03:16:38.229Z,7.41
2022-12-22T03:17:38.156Z,7.42
2022-12-22T03:18:38.153Z,7.42
2022-12-22T03:19:38.132Z,7.47
2022-12-22T03:20:38.128Z,7.50
2022-12-22T03:21:38.123Z,7.52
2022-12-22T03:22:38.225Z,7.52
2022-12-22T03:23:38.097Z,7.49
2022-12-22T03:24:38.071Z,7.47
2022-12-22T03:25:38.059Z,7.45
2022-12-22T03:26:38.058Z,7.47
2022-12-22T03:27:38.032Z,7.45
2022-12-22T03:28:38.051Z,7.44
2022-12-22T03:29:38.032Z,7.45
2022-12-22T03:30:38.005Z,7.44
2022-12-22T03:31:38.082Z,7.42
2022-12-22T03:32:37.984Z,7.42
2022-12-22T03:33:37.996Z,7.42
2022-12-22T03:34:37.966Z,7.44
2022-12-22T03:35:37.956Z,7.45
2022-12-22T03:36:37.941Z,7.44
2022-12-22T03:37:37.926Z,7.44
2022-12-22T03:38:37.931Z,7.45
2022-12-22T03:39:37.918Z,7.44
2022-12-22T03:40:37.899Z,7.45
2022-12-22T03:41:37.894Z,7.41
2022-12-22T03:42:37.878Z,7.41
2022-12-22T03:43:37.903Z,7.38
2022-12-22T03:44:37.876Z,7.38
2022-12-22T03:45:37.830Z,7.41
2022-12-22T03:46:37.846Z,7.41
2022-12-22T03:47:37.829Z,7.40
2022-12-22T03:48:37.821Z,7.40
2022-12-22T03:49:37.809Z,7.41
2022-12-22T03:50:37.786Z,7.41
2022-12-22T03:51:37.767Z,7.44
2022-12-22T03:52:37.763Z,7.44
2022-12-22T03:53:37.767Z,7.49
2022-12-22T03:54:37.733Z,7.47
2022-12-22T03:55:37.733Z,7.50
2022-12-22T03:56:37.717Z,7.49
2022-12-22T03:57:37.701Z,7.47
2022-12-22T03:58:37.717Z,7.49
2022-12-22T03:59:37.682Z,7.49
2022-12-22T04:00:37.669Z,7.47
2022-12-22T04:01:37.810Z,7.47
2022-12-22T04:02:37.766Z,7.47
2022-12-22T04:03:37.656Z,7.47
2022-12-22T04:04:37.619Z,7.47
2022-12-22T04:05:37.620Z,7.45
2022-12-22T04:06:37.608Z,7.45
2022-12-22T04:07:37.600Z,7.45
2022-12-22T04:08:37.589Z,7.47
2022-12-22T04:09:37.571Z,7.50
2022-12-22T04:10:37.560Z,7.49
2022-12-22T04:11:37.543Z,7.49
2022-12-22T04:12:37.540Z,7.47
2022-12-22T04:13:37.558Z,7.47
2022-12-22T04:14:37.521Z,7.49
2022-12-22T04:15:37.498Z,7.47
2022-12-22T04:16:37.561Z,7.50
2022-12-22T04:17:37.480Z,7.50
2022-12-22T04:18:37.490Z,7.50
2022-12-22T04:19:37.457Z,7.49
2022-12-22T04:20:37.453Z,7.45
2022-12-22T04:21:44.002Z,7.42
2022-12-22T04:22:37.432Z,7.40
2022-12-22T04:23:37.417Z,7.40
2022-12-22T04:24:37.421Z,7.41
2022-12-22T04:25:37.389Z,7.40
2022-12-22T04:26:37.407Z,7.41
2022-12-22T04:27:37.376Z,7.41
2022-12-22T04:28:37.408Z,7.41
2022-12-22T04:29:37.344Z,7.44
2022-12-22T04:30:37.330Z,7.49
2022-12-22T04:31:37.389Z,7.50
2022-12-22T04:32:37.325Z,7.53
2022-12-22T04:33:37.338Z,7.55
2022-12-22T04:34:37.334Z,7.55
2022-12-22T04:35:37.331Z,7.55
2022-12-22T04:36:37.271Z,7.55
2022-12-22T04:37:37.256Z,7.53
2022-12-22T04:38:37.265Z,7.55
2022-12-22T04:39:37.260Z,7.53
2022-12-22T04:40:37.224Z,7.55
2022-12-22T04:41:37.241Z,7.50
2022-12-22T04:42:37.233Z,7.50
2022-12-22T04:43:37.201Z,7.47
2022-12-22T04:44:37.221Z,7.49
2022-12-22T04:45:37.237Z,7.50
2022-12-22T04:46:37.155Z,7.49
2022-12-22T04:47:37.181Z,7.49
2022-12-22T04:48:37.153Z,7.47
2022-12-22T04:49:37.128Z,7.47
2022-12-22T04:50:37.139Z,7.47
2022-12-22T04:51:37.112Z,7.50
2022-12-22T04:52:37.097Z,7.50
2022-12-22T04:53:37.107Z,7.50
2022-12-22T04:54:41.158Z,7.52
2022-12-22T04:55:37.061Z,7.52
2022-12-22T04:56:37.059Z,7.55
2022-12-22T04:57:40.900Z,7.53
2022-12-22T04:58:37.046Z,7.53
2022-12-22T04:59:37.052Z,7.52
2022-12-22T05:00:37.003Z,7.50
2022-12-22T05:01:37.183Z,7.52
2022-12-22T05:02:37.156Z,7.50
2022-12-22T05:03:37.075Z,7.50
2022-12-22T05:04:37.082Z,7.50
2022-12-22T05:05:36.967Z,7.52
2022-12-22T05:06:36.952Z,7.50
2022-12-22T05:07:36.979Z,7.52
2022-12-22T05:08:36.956Z,7.52
2022-12-22T05:09:36.922Z,7.53
2022-12-22T05:10:36.947Z,7.53
2022-12-22T05:11:36.894Z,7.53
2022-12-22T05:12:36.867Z,7.53
2022-12-22T05:13:36.882Z,7.55
2022-12-22T05:14:36.872Z,7.55
2022-12-22T05:15:36.865Z,7.53
2022-12-22T05:16:36.851Z,7.52
2022-12-22T05:17:36.813Z,7.52
2022-12-22T05:18:36.796Z,7.52
2022-12-22T05:19:36.812Z,7.50
2022-12-22T05:20:36.787Z,7.50
2022-12-22T05:21:36.759Z,7.49
2022-12-22T05:22:36.803Z,7.47
2022-12-22T05:23:36.768Z,7.47
2022-12-22T05:24:36.743Z,7.49
2022-12-22T05:25:36.741Z,7.47
2022-12-22T05:26:36.715Z,7.47
2022-12-22T05:27:36.700Z,7.49
2022-12-22T05:28:36.693Z,7.50
2022-12-22T05:29:36.707Z,7.49
2022-12-22T05:30:36.697Z,7.50
2022-12-22T05:31:40.646Z,7.50
2022-12-22T05:32:36.658Z,7.52
2022-12-22T05:33:36.658Z,7.53
2022-12-22T05:34:36.633Z,7.55
2022-12-22T05:35:36.608Z,7.56
2022-12-22T05:36:36.611Z,7.56
2022-12-22T05:37:36.660Z,7.56
2022-12-22T05:38:36.644Z,7.55
2022-12-22T05:39:36.589Z,7.53
2022-12-22T05:40:36.576Z,7.53
2022-12-22T05:41:36.567Z,7.53
2022-12-22T05:42:36.575Z,7.53
2022-12-22T05:43:36.520Z,7.55
2022-12-22T05:44:36.568Z,7.55
2022-12-22T05:45:36.523Z,7.56
2022-12-22T05:46:36.617Z,7.56
2022-12-22T05:47:36.490Z,7.55
2022-12-22T05:48:39.195Z,7.55
2022-12-22T05:49:36.491Z,7.56
2022-12-22T05:50:36.438Z,7.59
2022-12-22T05:51:36.448Z,7.58
2022-12-22T05:52:36.427Z,7.55
2022-12-22T05:53:36.421Z,7.55
2022-12-22T05:54:36.416Z,7.58
2022-12-22T05:55:36.382Z,7.58
2022-12-22T05:56:36.397Z,7.59
2022-12-22T05:57:36.361Z,7.60
2022-12-22T05:58:36.357Z,7.60
2022-12-22T05:59:36.368Z,7.59
2022-12-22T06:00:36.335Z,7.60
2022-12-22T06:01:36.357Z,7.62
2022-12-22T06:02:36.397Z,7.63
2022-12-22T06:03:36.716Z,7.62
2022-12-22T06:04:36.310Z,7.60
2022-12-22T06:05:36.274Z,7.60
2022-12-22T06:06:36.265Z,7.59
2022-12-22T06:07:36.258Z,7.58
2022-12-22T06:08:36.251Z,7.56
2022-12-22T06:09:36.248Z,7.53
2022-12-22T06:10:36.221Z,7.50
2022-12-22T06:11:36.212Z,7.53
2022-12-22T06:12:36.210Z,7.55
2022-12-22T06:13:36.182Z,7.56
2022-12-22T06:14:36.201Z,7.56
2022-12-22T06:15:36.227Z,7.58
2022-12-22T06:16:36.188Z,7.59
2022-12-22T06:17:42.252Z,7.63
2022-12-22T06:18:36.203Z,7.67
2022-12-22T06:19:36.143Z,7.66
2022-12-22T06:20:36.101Z,7.67
2022-12-22T06:21:36.096Z,7.67
2022-12-22T06:22:36.099Z,7.69
2022-12-22T06:23:36.080Z,7.69
2022-12-22T06:24:36.078Z,7.69
2022-12-22T06:25:36.053Z,7.66
2022-12-22T06:26:36.049Z,7.66
2022-12-22T06:27:36.054Z,7.67
2022-12-22T06:28:36.048Z,7.67
2022-12-22T06:29:36.026Z,7.67
2022-12-22T06:30:36.001Z,7.66
2022-12-22T06:31:36.069Z,7.62
2022-12-22T06:32:36.003Z,7.60
2022-12-22T06:33:35.963Z,7.60
2022-12-22T06:34:35.964Z,7.60
2022-12-22T06:35:35.938Z,7.62
2022-12-22T06:36:35.933Z,7.62
2022-12-22T06:37:35.950Z,7.66
2022-12-22T06:38:36.744Z,7.63
2022-12-22T06:39:35.917Z,7.63
2022-12-22T06:40:35.897Z,7.66
2022-12-22T06:41:35.871Z,7.63
2022-12-22T06:42:35.873Z,7.63
2022-12-22T06:43:35.851Z,7.62
2022-12-22T06:44:35.865Z,7.60
2022-12-22T06:45:35.827Z,7.62
2022-12-22T06:46:35.870Z,7.60
2022-12-22T06:47:35.809Z,7.60
2022-12-22T06:48:35.799Z,7.59
2022-12-22T06:49:35.809Z,7.59
2022-12-22T06:50:35.790Z,7.59
2022-12-22T06:51:35.807Z,7.60
2022-12-22T06:52:35.778Z,7.62
2022-12-22T06:53:35.734Z,7.62
2022-12-22T06:54:35.780Z,7.63
2022-12-22T06:55:35.740Z,7.66
2022-12-22T06:56:35.717Z,7.62
2022-12-22T06:57:35.713Z,7.66
2022-12-22T06:58:35.679Z,7.69
2022-12-22T06:59:35.703Z,7.69
2022-12-22T07:00:35.681Z,7.67
2022-12-22T07:01:35.777Z,7.66
2022-12-22T07:02:35.969Z,7.63
2022-12-22T07:03:35.670Z,7.62
2022-12-22T07:04:35.666Z,7.62
2022-12-22T07:05:35.608Z,7.63
2022-12-22T07:06:35.603Z,7.60
2022-12-22T07:07:35.613Z,7.60
2022-12-22T07:08:35.587Z,7.62
2022-12-22T07:09:35.596Z,7.63
2022-12-22T07:10:35.567Z,7.62
2022-12-22T07:11:35.544Z,7.62
2022-12-22T07:12:35.564Z,7.63
2022-12-22T07:13:35.566Z,7.63
2022-12-22T07:14:35.580Z,7.63
2022-12-22T07:15:35.583Z,7.63
2022-12-22T07:16:35.600Z,7.62
2022-12-22T07:17:35.592Z,7.63
2022-12-22T07:18:35.485Z,7.63
2022-12-22T07:19:35.466Z,7.63
2022-12-22T07:20:35.452Z,7.67
2022-12-22T07:21:35.471Z,7.63
2022-12-22T07:22:35.443Z,7.63
2022-12-22T07:23:35.421Z,7.60
2022-12-22T07:24:35.425Z,7.62
2022-12-22T07:25:35.396Z,7.62
2022-12-22T07:26:35.380Z,7.60
2022-12-22T07:27:35.539Z,7.60
2022-12-22T07:28:35.340Z,7.60
2022-12-22T07:29:35.396Z,7.63
2022-12-22T07:30:35.343Z,7.62
2022-12-22T07:31:35.372Z,7.62
2022-12-22T07:32:35.300Z,7.59
2022-12-22T07:33:36.473Z,7.59
2022-12-22T07:34:35.303Z,7.59
2022-12-22T07:35:35.278Z,7.60
2022-12-22T07:36:35.272Z,7.60
2022-12-22T07:37:35.250Z,7.62
2022-12-22T07:38:35.258Z,7.62
2022-12-22T07:39:35.244Z,7.63
2022-12-22T07:40:39.587Z,7.63
2022-12-22T07:41:35.221Z,7.62
2022-12-22T07:42:35.196Z,7.63
2022-12-22T07:43:35.187Z,7.66
2022-12-22T07:44:35.224Z,7.63
2022-12-22T07:45:35.166Z,7.62
2022-12-22T07:46:35.270Z,7.66
2022-12-22T07:47:35.789Z,7.66
2022-12-22T07:48:35.132Z,7.67
2022-12-22T07:49:35.114Z,7.71
2022-12-22T07:50:35.132Z,7.71
2022-12-22T07:51:35.099Z,7.72
2022-12-22T07:52:35.105Z,7.71
2022-12-22T07:53:35.067Z,7.72
2022-12-22T07:54:41.100Z,7.74
2022-12-22T07:55:35.071Z,7.74
2022-12-22T07:56:35.041Z,7.77
2022-12-22T07:57:35.019Z,7.78
2022-12-22T07:58:35.016Z,7.79
2022-12-22T07:59:35.017Z,7.78
2022-12-22T08:00:35.005Z,7.78
2022-12-22T08:01:35.144Z,7.79
2022-12-22T08:02:38.871Z,7.81
2022-12-22T08:03:34.978Z,7.81
2022-12-22T08:04:34.987Z,7.82
2022-12-22T08:05:34.955Z,7.84
2022-12-22T08:06:34.974Z,7.85
2022-12-22T08:07:34.963Z,7.89
2022-12-22T08:08:34.914Z,7.90
2022-12-22T08:09:34.938Z,7.90
2022-12-22T08:10:34.907Z,7.90
2022-12-22T08:11:34.879Z,7.92
2022-12-22T08:12:34.951Z,7.90
2022-12-22T08:13:34.851Z,7.92
2022-12-22T08:14:34.857Z,7.90
2022-12-22T08:15:34.855Z,7.89
2022-12-22T08:16:34.987Z,7.90
2022-12-22T08:17:34.798Z,7.92
2022-12-22T08:18:34.804Z,7.93
2022-12-22T08:19:34.799Z,7.92
2022-12-22T08:20:34.787Z,7.94
2022-12-22T08:21:34.777Z,7.94
2022-12-22T08:22:34.745Z,7.93
2022-12-22T08:23:34.738Z,7.92
2022-12-22T08:24:34.720Z,7.94
2022-12-22T08:25:34.736Z,7.94
2022-12-22T08:26:34.693Z,7.94
2022-12-22T08:27:34.694Z,7.96
2022-12-22T08:28:35.029Z,7.96
2022-12-22T08:29:34.670Z,7.96
2022-12-22T08:30:34.685Z,7.97
2022-12-22T08:31:34.723Z,7.97
2022-12-22T08:32:34.631Z,7.96
2022-12-22T08:33:34.631Z,7.94
2022-12-22T08:34:34.613Z,7.92
2022-12-22T08:35:34.623Z,7.87
2022-12-22T08:36:34.599Z,7.87
2022-12-22T08:37:34.579Z,7.87
2022-12-22T08:38:34.687Z,7.85
2022-12-22T08:39:34.565Z,7.87
2022-12-22T08:40:34.563Z,7.90
2022-12-22T08:41:34.562Z,7.94
2022-12-22T08:42:34.527Z,7.94
2022-12-22T08:43:34.551Z,7.96
2022-12-22T08:44:34.506Z,8.00
2022-12-22T08:45:34.535Z,7.99
2022-12-22T08:46:34.612Z,7.94
2022-12-22T08:47:34.559Z,7.94
2022-12-22T08:48:34.593Z,7.94
2022-12-22T08:49:34.462Z,7.94
2022-12-22T08:50:34.444Z,7.93
2022-12-22T08:51:34.422Z,7.96
2022-12-22T08:52:34.415Z,7.96
2022-12-22T08:54:34.394Z,7.99
2022-12-22T08:55:34.416Z,8.00
2022-12-22T08:56:34.398Z,7.99
2022-12-22T08:57:34.353Z,8.03
2022-12-22T08:58:34.341Z,8.02
2022-12-22T08:59:34.322Z,8.03
2022-12-22T09:00:34.416Z,8.03
2022-12-22T09:01:34.381Z,8.04
2022-12-22T09:02:34.487Z,8.07
2022-12-22T09:03:34.417Z,8.07
2022-12-22T09:04:34.276Z,8.07
2022-12-22T09:05:34.282Z,8.04
2022-12-22T09:06:40.456Z,8.10
2022-12-22T09:07:34.268Z,8.11
2022-12-22T09:08:34.229Z,8.12
2022-12-22T09:09:34.258Z,8.15
2022-12-22T09:10:34.227Z,8.14
2022-12-22T09:11:34.193Z,8.12
2022-12-22T09:12:34.215Z,8.11
2022-12-22T09:13:34.176Z,8.11
2022-12-22T09:14:34.173Z,8.10
2022-12-22T09:15:34.185Z,8.10
2022-12-22T09:16:34.213Z,8.10
2022-12-22T09:17:34.128Z,8.10
2022-12-22T09:18:34.151Z,8.11
2022-12-22T09:19:34.111Z,8.11
2022-12-22T09:20:34.115Z,8.12
2022-12-22T09:21:34.113Z,8.10
2022-12-22T09:22:34.076Z,8.10
2022-12-22T09:23:34.060Z,8.11
2022-12-22T09:24:34.091Z,8.11
2022-12-22T09:25:34.073Z,8.12
2022-12-22T09:26:34.040Z,8.12
2022-12-22T09:27:34.034Z,8.11
2022-12-22T09:28:34.016Z,8.11
2022-12-22T09:29:34.012Z,8.14
2022-12-22T09:30:34.006Z,8.17
2022-12-22T09:31:34.126Z,8.14
2022-12-22T09:32:33.956Z,8.20
2022-12-22T09:33:33.959Z,8.25
2022-12-22T09:34:33.981Z,8.28
2022-12-22T09:35:33.946Z,8.30
2022-12-22T09:36:33.923Z,8.32
2022-12-22T09:37:33.917Z,8.33
2022-12-22T09:38:33.931Z,8.36
2022-12-22T09:39:33.889Z,8.39
2022-12-22T09:40:33.891Z,8.39
2022-12-22T09:41:33.870Z,8.40
2022-12-22T09:42:33.863Z,8.40
2022-12-22T09:43:33.868Z,8.39
2022-12-22T09:44:33.831Z,8.37
2022-12-22T09:45:33.966Z,8.37
2022-12-22T09:46:33.811Z,8.36
2022-12-22T09:47:33.816Z,8.37
2022-12-22T09:48:33.804Z,8.39
2022-12-22T09:49:33.775Z,8.39
2022-12-22T09:50:33.793Z,8.44
2022-12-22T09:51:33.760Z,8.47
2022-12-22T09:52:33.742Z,8.48
2022-12-22T09:53:33.738Z,8.48
2022-12-22T09:54:33.727Z,8.50
2022-12-22T09:55:33.723Z,8.51
2022-12-22T09:56:33.703Z,8.54
2022-12-22T09:57:33.695Z,8.54
2022-12-22T09:58:33.677Z,8.53
2022-12-22T09:59:33.672Z,8.51
2022-12-22T10:00:33.673Z,8.47
2022-12-22T10:01:33.803Z,8.45
2022-12-22T10:02:33.666Z,8.45
2022-12-22T10:03:33.739Z,8.42
2022-12-22T10:04:33.608Z,8.44
2022-12-22T10:05:33.685Z,8.45
2022-12-22T10:06:33.592Z,8.45
2022-12-22T10:07:33.590Z,8.45
2022-12-22T10:08:33.559Z,8.47
2022-12-22T10:09:49.519Z,8.48
2022-12-22T10:10:33.564Z,8.55
2022-12-22T10:11:33.544Z,8.63
2022-12-22T10:12:33.540Z,8.63
2022-12-22T10:13:33.519Z,8.65
2022-12-22T10:14:33.493Z,8.66
2022-12-22T10:15:33.506Z,8.63
2022-12-22T10:16:33.472Z,8.58
2022-12-22T10:17:33.499Z,8.57
2022-12-22T10:18:33.469Z,8.53
2022-12-22T10:19:33.446Z,8.53
2022-12-22T10:20:33.460Z,8.51
2022-12-22T10:21:46.334Z,8.47
2022-12-22T10:22:33.431Z,8.44
2022-12-22T10:23:33.395Z,8.45
2022-12-22T10:24:33.388Z,8.48
2022-12-22T10:25:52.229Z,8.48
2022-12-22T10:26:33.424Z,8.42
2022-12-22T10:27:33.364Z,8.39
2022-12-22T10:28:33.350Z,8.39
2022-12-22T10:29:33.322Z,8.37
2022-12-22T10:30:33.326Z,8.37
2022-12-22T10:31:33.977Z,8.37
2022-12-22T10:32:33.289Z,8.36
2022-12-22T10:33:33.311Z,8.40
2022-12-22T10:34:33.284Z,8.45
2022-12-22T10:35:33.282Z,8.50
2022-12-22T10:36:33.254Z,8.51
2022-12-22T10:37:33.245Z,8.48
2022-12-22T10:38:33.236Z,8.45
2022-12-22T10:39:33.248Z,8.47
2022-12-22T10:40:33.237Z,8.45
2022-12-22T10:41:33.204Z,8.44
2022-12-22T10:42:33.184Z,8.44
2022-12-22T10:43:33.209Z,8.40
2022-12-22T10:44:33.167Z,8.40
2022-12-22T10:45:33.342Z,8.40
2022-12-22T10:46:33.272Z,8.42
2022-12-22T10:47:33.143Z,8.40
2022-12-22T10:48:33.126Z,8.40
2022-12-22T10:49:33.108Z,8.40
2022-12-22T10:50:33.114Z,8.37
2022-12-22T10:51:33.099Z,8.36
2022-12-22T10:52:33.190Z,8.39
2022-12-22T10:53:33.072Z,8.47
2022-12-22T10:54:33.075Z,8.54
2022-12-22T10:55:33.052Z,8.55
2022-12-22T10:56:33.061Z,8.54
2022-12-22T10:57:33.053Z,8.53
2022-12-22T10:58:33.015Z,8.53
2022-12-22T10:59:33.018Z,8.54
2022-12-22T11:00:33.060Z,8.54
2022-12-22T11:01:33.148Z,8.55
2022-12-22T11:02:33.319Z,8.57
2022-12-22T11:03:33.201Z,8.58
2022-12-22T11:04:32.977Z,8.60
2022-12-22T11:05:32.962Z,8.63
2022-12-22T11:06:32.952Z,8.65
2022-12-22T11:07:32.923Z,8.66
2022-12-22T11:08:32.916Z,8.69
2022-12-22T11:09:34.596Z,8.69
2022-12-22T11:10:32.938Z,8.68
2022-12-22T11:11:32.860Z,8.68
2022-12-22T11:12:32.909Z,8.72
2022-12-22T11:13:32.892Z,8.72
2022-12-22T11:14:32.839Z,8.73
2022-12-22T11:15:32.844Z,8.72
2022-12-22T11:16:32.863Z,8.72
2022-12-22T11:17:32.818Z,8.72
2022-12-22T11:18:32.799Z,8.72
2022-12-22T11:19:32.785Z,8.69
2022-12-22T11:20:32.794Z,8.72
2022-12-22T11:21:32.757Z,8.71
2022-12-22T11:22:32.777Z,8.71
2022-12-22T11:23:32.781Z,8.72
2022-12-22T11:24:32.736Z,8.72
2022-12-22T11:25:32.739Z,8.73
2022-12-22T11:26:32.720Z,8.73
2022-12-22T11:27:32.706Z,8.73
2022-12-22T11:28:32.682Z,8.73
2022-12-22T11:29:32.677Z,8.75
2022-12-22T11:30:32.831Z,8.73
2022-12-22T11:31:32.755Z,8.71
2022-12-22T11:32:32.657Z,8.69
2022-12-22T11:33:32.663Z,8.66
2022-12-22T11:34:32.612Z,8.63
2022-12-22T11:35:32.650Z,8.57
2022-12-22T11:36:32.623Z,8.55
2022-12-22T11:37:32.623Z,8.54
2022-12-22T11:38:32.602Z,8.51
2022-12-22T11:39:32.583Z,8.48
2022-12-22T11:40:32.593Z,8.47
2022-12-22T11:41:32.543Z,8.45
2022-12-22T11:42:32.531Z,8.42
2022-12-22T11:43:32.572Z,8.40
2022-12-22T11:44:32.754Z,8.39
2022-12-22T11:45:35.253Z,8.39
2022-12-22T11:46:32.553Z,8.35
2022-12-22T11:47:32.479Z,8.33
2022-12-22T11:48:32.457Z,8.30
2022-12-22T11:49:32.520Z,8.32
2022-12-22T11:51:02.180Z,8.35
2022-12-22T11:51:32.450Z,8.33
2022-12-22T11:52:32.418Z,8.33
2022-12-22T11:53:32.409Z,8.32
2022-12-22T11:54:32.392Z,8.32
2022-12-22T11:55:32.435Z,8.32
2022-12-22T11:56:32.369Z,8.32
2022-12-22T11:57:32.361Z,8.30
2022-12-22T11:58:32.403Z,8.26
2022-12-22T11:59:32.411Z,8.25
2022-12-22T12:00:56.110Z,8.22
2022-12-22T12:01:32.444Z,8.25
2022-12-22T12:02:32.497Z,8.28
2022-12-22T12:03:32.472Z,8.29
2022-12-22T12:04:32.354Z,8.39
2022-12-22T12:05:32.300Z,8.47
2022-12-22T12:06:32.287Z,8.48
2022-12-22T12:07:32.281Z,8.50
2022-12-22T12:08:32.248Z,8.51
2022-12-22T12:09:32.235Z,8.50
2022-12-22T12:10:32.236Z,8.48
2022-12-22T12:11:32.210Z,8.47
2022-12-22T12:12:32.214Z,8.45
2022-12-22T12:13:37.111Z,8.45
2022-12-22T12:14:32.176Z,8.44
2022-12-22T12:15:32.211Z,8.47
2022-12-22T12:16:32.204Z,8.47
2022-12-22T12:17:32.149Z,8.47
2022-12-22T12:18:32.911Z,8.47
2022-12-22T12:19:32.139Z,8.45
2022-12-22T12:20:32.144Z,8.42
2022-12-22T12:21:32.124Z,8.40
2022-12-22T12:22:32.098Z,8.37
2022-12-22T12:23:32.083Z,8.37
2022-12-22T12:24:32.076Z,8.39
2022-12-22T12:25:32.064Z,8.39
2022-12-22T12:26:32.065Z,8.36
2022-12-22T12:27:32.033Z,8.32
2022-12-22T12:28:32.029Z,8.29
2022-12-22T12:29:32.002Z,8.22
2022-12-22T12:30:39.726Z,8.20
2022-12-22T12:31:32.055Z,8.15
2022-12-22T12:32:31.975Z,8.15
2022-12-22T12:33:31.970Z,8.10
2022-12-22T12:34:31.962Z,8.11
2022-12-22T12:35:31.945Z,8.12
2022-12-22T12:36:31.953Z,8.08
2022-12-22T12:37:31.921Z,8.07
2022-12-22T12:39:06.341Z,8.03
2022-12-22T12:39:31.921Z,7.94
2022-12-22T12:40:31.905Z,7.93
2022-12-22T12:41:31.907Z,7.89
2022-12-22T12:42:31.880Z,7.82
2022-12-22T12:43:31.859Z,7.79
2022-12-22T12:44:31.861Z,7.78
2022-12-22T12:45:31.858Z,7.77
2022-12-22T12:46:31.863Z,7.77
2022-12-22T12:47:31.847Z,7.74
2022-12-22T12:48:31.830Z,7.72
2022-12-22T12:49:31.803Z,7.72
2022-12-22T12:50:31.783Z,7.67
2022-12-22T12:51:31.809Z,7.69
2022-12-22T12:52:31.773Z,7.72
2022-12-22T12:53:31.754Z,7.75
2022-12-22T12:54:31.746Z,7.85
2022-12-22T12:55:33.050Z,7.84
2022-12-22T12:56:33.454Z,7.84
2022-12-22T12:57:31.742Z,7.84
2022-12-22T12:58:31.708Z,7.92
2022-12-22T12:59:31.700Z,8.03
2022-12-22T13:00:31.718Z,8.02
2022-12-22T13:01:31.962Z,7.99
2022-12-22T13:02:31.818Z,8.00
2022-12-22T13:04:01.806Z,8.02
2022-12-22T13:04:31.730Z,8.02
2022-12-22T13:05:31.635Z,7.99
2022-12-22T13:06:31.642Z,8.03
2022-12-22T13:07:31.597Z,8.04
2022-12-22T13:08:31.597Z,8.02
2022-12-22T13:10:01.135Z,7.99
2022-12-22T13:10:31.689Z,7.96
2022-12-22T13:12:10.762Z,7.90
2022-12-22T13:12:31.569Z,7.87
2022-12-22T13:13:31.540Z,7.87
2022-12-22T13:14:32.829Z,7.84
2022-12-22T13:15:31.552Z,7.81
2022-12-22T13:16:31.642Z,7.72
2022-12-22T13:17:31.622Z,7.74
2022-12-22T13:18:31.549Z,7.74
2022-12-22T13:19:31.465Z,7.74